San Francisco, California
Traffic Map
Current Weather Conditions
San Francisco, California
Few Clouds
Few Clouds
69°
Feels Like: 69°
Wind Chill: 69° Ceiling: Unl
Heat Index: 69° Visibility: 10mi
Dew Point: 59° Wind: 8mph
Humidity: 70% Direction: 320° (NW)
Pressure: 30.05in Gusts: 0mph
Raw Report DataKSFO 291656Z 32007KT 10SM FEW008 21/15 A3005 RMK AO2 SLP176 T02060150
Traffic Incident Summary
Active as of:
Severity:
Category:
InformationThere was an issue retrieving the traffic information for this location. Please try a different location or try again shortly.
Advertisements
Track Severe Weather on mobile